sensor_id;sensor_type;location;lat;lon;timestamp;P1;durP1;ratioP1;P2;durP2;ratioP2
79592;SDS011;69074;45.164;9.704;2023-07-09T00:00:46;30.9;;;23.5;;
79592;SDS011;69074;45.164;9.704;2023-07-09T00:03:11;30.9;;;23.5;;
79592;SDS011;69074;45.164;9.704;2023-07-09T00:05:36;30.9;;;23.5;;
79592;SDS011;69074;45.164;9.704;2023-07-09T00:08:01;30.9;;;23.5;;
79592;SDS011;69074;45.164;9.704;2023-07-09T00:10:26;44.6;;;39.0;;
79592;SDS011;69074;45.164;9.704;2023-07-09T00:12:51;44.6;;;39.0;;
79592;SDS011;69074;45.164;9.704;2023-07-09T00:15:16;44.6;;;39.0;;
79592;SDS011;69074;45.164;9.704;2023-07-09T00:17:41;44.6;;;39.0;;
79592;SDS011;69074;45.164;9.704;2023-07-09T00:20:06;44.6;;;39.0;;
79592;SDS011;69074;45.164;9.704;2023-07-09T00:22:31;44.6;;;39.0;;
79592;SDS011;69074;45.164;9.704;2023-07-09T00:24:56;34.4;;;25.8;;
79592;SDS011;69074;45.164;9.704;2023-07-09T00:27:21;34.4;;;25.8;;
79592;SDS011;69074;45.164;9.704;2023-07-09T00:29:46;34.4;;;25.8;;
79592;SDS011;69074;45.164;9.704;2023-07-09T00:32:12;34.4;;;25.8;;
79592;SDS011;69074;45.164;9.704;2023-07-09T00:34:36;34.4;;;25.8;;
79592;SDS011;69074;45.164;9.704;2023-07-09T00:37:01;34.4;;;25.8;;
79592;SDS011;69074;45.164;9.704;2023-07-09T00:39:26;34.4;;;25.8;;
79592;SDS011;69074;45.164;9.704;2023-07-09T00:41:51;14.6;;;11.0;;
79592;SDS011;69074;45.164;9.704;2023-07-09T00:44:20;14.6;;;11.0;;
79592;SDS011;69074;45.164;9.704;2023-07-09T00:47:15;14.6;;;11.0;;
79592;SDS011;69074;45.164;9.704;2023-07-09T00:49:07;14.6;;;11.0;;
79592;SDS011;69074;45.164;9.704;2023-07-09T00:51:31;14.6;;;11.0;;
79592;SDS011;69074;45.164;9.704;2023-07-09T00:53:57;14.6;;;11.0;;
79592;SDS011;69074;45.164;9.704;2023-07-09T00:56:23;11.1;;;7.2;;
79592;SDS011;69074;45.164;9.704;2023-07-09T00:58:46;11.1;;;7.2;;
79592;SDS011;69074;45.164;9.704;2023-07-09T01:01:11;11.1;;;7.2;;
79592;SDS011;69074;45.164;9.704;2023-07-09T01:03:36;11.1;;;7.2;;
79592;SDS011;69074;45.164;9.704;2023-07-09T01:06:01;11.1;;;7.2;;
79592;SDS011;69074;45.164;9.704;2023-07-09T01:08:26;11.1;;;7.2;;
79592;SDS011;69074;45.164;9.704;2023-07-09T01:10:51;8.3;;;6.7;;
79592;SDS011;69074;45.164;9.704;2023-07-09T01:13:16;8.3;;;6.7;;
79592;SDS011;69074;45.164;9.704;2023-07-09T01:15:41;8.3;;;6.7;;
79592;SDS011;69074;45.164;9.704;2023-07-09T01:18:06;8.3;;;6.7;;
79592;SDS011;69074;45.164;9.704;2023-07-09T01:20:31;8.3;;;6.7;;
79592;SDS011;69074;45.164;9.704;2023-07-09T01:22:56;8.3;;;6.7;;
79592;SDS011;69074;45.164;9.704;2023-07-09T01:25:21;11.3;;;7.2;;
79592;SDS011;69074;45.164;9.704;2023-07-09T01:27:46;11.3;;;7.2;;
79592;SDS011;69074;45.164;9.704;2023-07-09T01:30:13;11.3;;;7.2;;
79592;SDS011;69074;45.164;9.704;2023-07-09T01:32:36;11.3;;;7.2;;
79592;SDS011;69074;45.164;9.704;2023-07-09T01:35:02;11.3;;;7.2;;
79592;SDS011;69074;45.164;9.704;2023-07-09T01:37:27;11.3;;;7.2;;
79592;SDS011;69074;45.164;9.704;2023-07-09T01:39:52;12.7;;;9.5;;
79592;SDS011;69074;45.164;9.704;2023-07-09T01:42:16;12.7;;;9.5;;
79592;SDS011;69074;45.164;9.704;2023-07-09T01:44:41;12.7;;;9.5;;
79592;SDS011;69074;45.164;9.704;2023-07-09T01:47:06;12.7;;;9.5;;
79592;SDS011;69074;45.164;9.704;2023-07-09T01:49:31;12.7;;;9.5;;
79592;SDS011;69074;45.164;9.704;2023-07-09T01:51:56;12.7;;;9.5;;
79592;SDS011;69074;45.164;9.704;2023-07-09T01:54:21;12.7;;;9.5;;
79592;SDS011;69074;45.164;9.704;2023-07-09T01:56:46;13.0;;;8.3;;
79592;SDS011;69074;45.164;9.704;2023-07-09T01:59:11;13.0;;;8.3;;
79592;SDS011;69074;45.164;9.704;2023-07-09T02:01:36;13.0;;;8.3;;
79592;SDS011;69074;45.164;9.704;2023-07-09T02:04:01;13.0;;;8.3;;
79592;SDS011;69074;45.164;9.704;2023-07-09T02:06:26;13.0;;;8.3;;
79592;SDS011;69074;45.164;9.704;2023-07-09T02:08:51;13.0;;;8.3;;
79592;SDS011;69074;45.164;9.704;2023-07-09T02:11:16;11.6;;;8.5;;
79592;SDS011;69074;45.164;9.704;2023-07-09T02:13:41;11.6;;;8.5;;
79592;SDS011;69074;45.164;9.704;2023-07-09T02:16:06;11.6;;;8.5;;
79592;SDS011;69074;45.164;9.704;2023-07-09T02:18:31;11.6;;;8.5;;
79592;SDS011;69074;45.164;9.704;2023-07-09T02:20:56;11.6;;;8.5;;
79592;SDS011;69074;45.164;9.704;2023-07-09T02:23:25;11.6;;;8.5;;
79592;SDS011;69074;45.164;9.704;2023-07-09T02:25:46;16.2;;;9.7;;
79592;SDS011;69074;45.164;9.704;2023-07-09T02:28:11;16.2;;;9.7;;
79592;SDS011;69074;45.164;9.704;2023-07-09T02:30:36;16.2;;;9.7;;
79592;SDS011;69074;45.164;9.704;2023-07-09T02:33:01;16.2;;;9.7;;
79592;SDS011;69074;45.164;9.704;2023-07-09T02:35:26;16.2;;;9.7;;
79592;SDS011;69074;45.164;9.704;2023-07-09T02:37:51;16.2;;;9.7;;
79592;SDS011;69074;45.164;9.704;2023-07-09T02:40:16;12.6;;;9.5;;
79592;SDS011;69074;45.164;9.704;2023-07-09T02:42:41;12.6;;;9.5;;
79592;SDS011;69074;45.164;9.704;2023-07-09T02:45:07;12.6;;;9.5;;
79592;SDS011;69074;45.164;9.704;2023-07-09T02:47:31;12.6;;;9.5;;
79592;SDS011;69074;45.164;9.704;2023-07-09T02:49:56;12.6;;;9.5;;
79592;SDS011;69074;45.164;9.704;2023-07-09T02:52:21;12.6;;;9.5;;
79592;SDS011;69074;45.164;9.704;2023-07-09T02:54:46;14.6;;;9.5;;
79592;SDS011;69074;45.164;9.704;2023-07-09T02:57:11;14.6;;;9.5;;
79592;SDS011;69074;45.164;9.704;2023-07-09T02:59:36;14.6;;;9.5;;
79592;SDS011;69074;45.164;9.704;2023-07-09T03:02:01;14.6;;;9.5;;
79592;SDS011;69074;45.164;9.704;2023-07-09T03:04:26;14.6;;;9.5;;
79592;SDS011;69074;45.164;9.704;2023-07-09T03:06:51;14.6;;;9.5;;
79592;SDS011;69074;45.164;9.704;2023-07-09T03:09:16;14.6;;;9.5;;
79592;SDS011;69074;45.164;9.704;2023-07-09T03:11:41;13.6;;;9.4;;
79592;SDS011;69074;45.164;9.704;2023-07-09T03:14:07;13.6;;;9.4;;
79592;SDS011;69074;45.164;9.704;2023-07-09T03:16:32;13.6;;;9.4;;
79592;SDS011;69074;45.164;9.704;2023-07-09T03:18:57;13.6;;;9.4;;
79592;SDS011;69074;45.164;9.704;2023-07-09T03:21:22;13.6;;;9.4;;
79592;SDS011;69074;45.164;9.704;2023-07-09T03:23:46;13.6;;;9.4;;
79592;SDS011;69074;45.164;9.704;2023-07-09T03:26:11;14.4;;;10.2;;
79592;SDS011;69074;45.164;9.704;2023-07-09T03:28:36;14.4;;;10.2;;
79592;SDS011;69074;45.164;9.704;2023-07-09T03:31:01;14.4;;;10.2;;
79592;SDS011;69074;45.164;9.704;2023-07-09T03:33:27;14.4;;;10.2;;
79592;SDS011;69074;45.164;9.704;2023-07-09T03:35:52;14.4;;;10.2;;
79592;SDS011;69074;45.164;9.704;2023-07-09T03:38:17;14.4;;;10.2;;
79592;SDS011;69074;45.164;9.704;2023-07-09T03:40:42;14.5;;;11.3;;
79592;SDS011;69074;45.164;9.704;2023-07-09T03:43:08;14.5;;;11.3;;
79592;SDS011;69074;45.164;9.704;2023-07-09T03:45:32;14.5;;;11.3;;
79592;SDS011;69074;45.164;9.704;2023-07-09T03:47:57;14.5;;;11.3;;
79592;SDS011;69074;45.164;9.704;2023-07-09T03:50:22;14.5;;;11.3;;
79592;SDS011;69074;45.164;9.704;2023-07-09T03:52:47;14.5;;;11.3;;
79592;SDS011;69074;45.164;9.704;2023-07-09T03:55:12;15.4;;;12.0;;
79592;SDS011;69074;45.164;9.704;2023-07-09T03:57:37;15.4;;;12.0;;
79592;SDS011;69074;45.164;9.704;2023-07-09T04:00:02;15.4;;;12.0;;
79592;SDS011;69074;45.164;9.704;2023-07-09T04:02:27;15.4;;;12.0;;
79592;SDS011;69074;45.164;9.704;2023-07-09T04:04:52;15.4;;;12.0;;
79592;SDS011;69074;45.164;9.704;2023-07-09T04:07:17;15.4;;;12.0;;
79592;SDS011;69074;45.164;9.704;2023-07-09T04:09:42;17.1;;;12.2;;
79592;SDS011;69074;45.164;9.704;2023-07-09T04:12:07;17.1;;;12.2;;
79592;SDS011;69074;45.164;9.704;2023-07-09T04:14:32;17.1;;;12.2;;
79592;SDS011;69074;45.164;9.704;2023-07-09T04:16:57;17.1;;;12.2;;
79592;SDS011;69074;45.164;9.704;2023-07-09T04:19:22;17.1;;;12.2;;
79592;SDS011;69074;45.164;9.704;2023-07-09T04:21:47;17.1;;;12.2;;
79592;SDS011;69074;45.164;9.704;2023-07-09T04:24:13;17.1;;;12.2;;
79592;SDS011;69074;45.164;9.704;2023-07-09T04:26:37;21.1;;;15.8;;
79592;SDS011;69074;45.164;9.704;2023-07-09T04:29:02;21.1;;;15.8;;
79592;SDS011;69074;45.164;9.704;2023-07-09T04:31:27;21.1;;;15.8;;
79592;SDS011;69074;45.164;9.704;2023-07-09T04:33:52;21.1;;;15.8;;
79592;SDS011;69074;45.164;9.704;2023-07-09T04:36:17;21.1;;;15.8;;
79592;SDS011;69074;45.164;9.704;2023-07-09T04:38:42;21.1;;;15.8;;
79592;SDS011;69074;45.164;9.704;2023-07-09T04:41:07;21.7;;;16.8;;
79592;SDS011;69074;45.164;9.704;2023-07-09T04:43:32;21.7;;;16.8;;
79592;SDS011;69074;45.164;9.704;2023-07-09T04:45:57;21.7;;;16.8;;
79592;SDS011;69074;45.164;9.704;2023-07-09T04:48:22;21.7;;;16.8;;
79592;SDS011;69074;45.164;9.704;2023-07-09T04:50:47;21.7;;;16.8;;
79592;SDS011;69074;45.164;9.704;2023-07-09T04:53:12;21.7;;;16.8;;
79592;SDS011;69074;45.164;9.704;2023-07-09T04:55:37;19.6;;;15.9;;
79592;SDS011;69074;45.164;9.704;2023-07-09T04:58:02;19.6;;;15.9;;
79592;SDS011;69074;45.164;9.704;2023-07-09T05:00:27;19.6;;;15.9;;
79592;SDS011;69074;45.164;9.704;2023-07-09T05:02:52;19.6;;;15.9;;
79592;SDS011;69074;45.164;9.704;2023-07-09T05:05:17;19.6;;;15.9;;
79592;SDS011;69074;45.164;9.704;2023-07-09T05:07:42;19.6;;;15.9;;
79592;SDS011;69074;45.164;9.704;2023-07-09T05:10:07;19.2;;;15.9;;
79592;SDS011;69074;45.164;9.704;2023-07-09T05:12:32;19.2;;;15.9;;
79592;SDS011;69074;45.164;9.704;2023-07-09T05:14:57;19.2;;;15.9;;
79592;SDS011;69074;45.164;9.704;2023-07-09T05:17:22;19.2;;;15.9;;
79592;SDS011;69074;45.164;9.704;2023-07-09T05:19:47;19.2;;;15.9;;
79592;SDS011;69074;45.164;9.704;2023-07-09T05:22:12;19.2;;;15.9;;
79592;SDS011;69074;45.164;9.704;2023-07-09T05:24:37;21.1;;;16.8;;
79592;SDS011;69074;45.164;9.704;2023-07-09T05:27:02;21.1;;;16.8;;
79592;SDS011;69074;45.164;9.704;2023-07-09T05:29:27;21.1;;;16.8;;
79592;SDS011;69074;45.164;9.704;2023-07-09T05:31:52;21.1;;;16.8;;
79592;SDS011;69074;45.164;9.704;2023-07-09T05:34:17;21.1;;;16.8;;
79592;SDS011;69074;45.164;9.704;2023-07-09T05:36:42;21.1;;;16.8;;
79592;SDS011;69074;45.164;9.704;2023-07-09T05:39:07;21.1;;;16.8;;
79592;SDS011;69074;45.164;9.704;2023-07-09T05:41:32;25.4;;;18.4;;
79592;SDS011;69074;45.164;9.704;2023-07-09T05:43:57;25.4;;;18.4;;
79592;SDS011;69074;45.164;9.704;2023-07-09T05:46:22;25.4;;;18.4;;
79592;SDS011;69074;45.164;9.704;2023-07-09T05:48:47;25.4;;;18.4;;
79592;SDS011;69074;45.164;9.704;2023-07-09T05:51:12;25.4;;;18.4;;
79592;SDS011;69074;45.164;9.704;2023-07-09T05:53:37;25.4;;;18.4;;
79592;SDS011;69074;45.164;9.704;2023-07-09T05:56:02;22.0;;;17.2;;
79592;SDS011;69074;45.164;9.704;2023-07-09T05:58:27;22.0;;;17.2;;
79592;SDS011;69074;45.164;9.704;2023-07-09T06:00:52;22.0;;;17.2;;
79592;SDS011;69074;45.164;9.704;2023-07-09T06:03:17;22.0;;;17.2;;
79592;SDS011;69074;45.164;9.704;2023-07-09T06:05:42;22.0;;;17.2;;
79592;SDS011;69074;45.164;9.704;2023-07-09T06:08:07;22.0;;;17.2;;
79592;SDS011;69074;45.164;9.704;2023-07-09T06:10:32;23.0;;;17.5;;
79592;SDS011;69074;45.164;9.704;2023-07-09T06:12:57;23.0;;;17.5;;
79592;SDS011;69074;45.164;9.704;2023-07-09T06:15:22;23.0;;;17.5;;
79592;SDS011;69074;45.164;9.704;2023-07-09T06:17:47;23.0;;;17.5;;
79592;SDS011;69074;45.164;9.704;2023-07-09T06:20:12;23.0;;;17.5;;
79592;SDS011;69074;45.164;9.704;2023-07-09T06:22:37;23.0;;;17.5;;
79592;SDS011;69074;45.164;9.704;2023-07-09T06:25:02;17.5;;;12.2;;
79592;SDS011;69074;45.164;9.704;2023-07-09T06:27:27;17.5;;;12.2;;
79592;SDS011;69074;45.164;9.704;2023-07-09T06:29:52;17.5;;;12.2;;
79592;SDS011;69074;45.164;9.704;2023-07-09T06:32:17;17.5;;;12.2;;
79592;SDS011;69074;45.164;9.704;2023-07-09T06:34:42;17.5;;;12.2;;
79592;SDS011;69074;45.164;9.704;2023-07-09T06:46:18;18.6;;;12.1;;
79592;SDS011;69074;45.164;9.704;2023-07-09T06:48:42;18.6;;;12.1;;
79592;SDS011;69074;45.164;9.704;2023-07-09T06:51:07;18.6;;;12.1;;
79592;SDS011;69074;45.164;9.704;2023-07-09T06:53:32;18.6;;;12.1;;
79592;SDS011;69074;45.164;9.704;2023-07-09T06:55:57;13.9;;;10.5;;
79592;SDS011;69074;45.164;9.704;2023-07-09T06:58:22;13.9;;;10.5;;
79592;SDS011;69074;45.164;9.704;2023-07-09T07:00:48;13.9;;;10.5;;
79592;SDS011;69074;45.164;9.704;2023-07-09T07:03:12;13.9;;;10.5;;
79592;SDS011;69074;45.164;9.704;2023-07-09T07:05:37;13.9;;;10.5;;
79592;SDS011;69074;45.164;9.704;2023-07-09T07:08:03;13.9;;;10.5;;
79592;SDS011;69074;45.164;9.704;2023-07-09T07:10:28;18.4;;;12.0;;
79592;SDS011;69074;45.164;9.704;2023-07-09T07:12:53;18.4;;;12.0;;
79592;SDS011;69074;45.164;9.704;2023-07-09T07:15:17;18.4;;;12.0;;
79592;SDS011;69074;45.164;9.704;2023-07-09T07:17:42;18.4;;;12.0;;
79592;SDS011;69074;45.164;9.704;2023-07-09T07:20:08;18.4;;;12.0;;
79592;SDS011;69074;45.164;9.704;2023-07-09T07:22:32;18.4;;;12.0;;
79592;SDS011;69074;45.164;9.704;2023-07-09T07:24:58;16.3;;;12.7;;
79592;SDS011;69074;45.164;9.704;2023-07-09T07:27:22;16.3;;;12.7;;
79592;SDS011;69074;45.164;9.704;2023-07-09T07:29:47;16.3;;;12.7;;
79592;SDS011;69074;45.164;9.704;2023-07-09T07:32:13;16.3;;;12.7;;
79592;SDS011;69074;45.164;9.704;2023-07-09T07:34:38;16.3;;;12.7;;
79592;SDS011;69074;45.164;9.704;2023-07-09T07:37:03;16.3;;;12.7;;
79592;SDS011;69074;45.164;9.704;2023-07-09T07:39:27;16.3;;;12.7;;
79592;SDS011;69074;45.164;9.704;2023-07-09T07:41:53;17.4;;;12.7;;
79592;SDS011;69074;45.164;9.704;2023-07-09T07:44:18;17.4;;;12.7;;
79592;SDS011;69074;45.164;9.704;2023-07-09T07:46:43;17.4;;;12.7;;
79592;SDS011;69074;45.164;9.704;2023-07-09T07:49:08;17.4;;;12.7;;
79592;SDS011;69074;45.164;9.704;2023-07-09T07:51:33;17.4;;;12.7;;
79592;SDS011;69074;45.164;9.704;2023-07-09T07:53:58;17.4;;;12.7;;
79592;SDS011;69074;45.164;9.704;2023-07-09T07:56:23;18.8;;;15.7;;
79592;SDS011;69074;45.164;9.704;2023-07-09T07:58:48;18.8;;;15.7;;
79592;SDS011;69074;45.164;9.704;2023-07-09T08:01:13;18.8;;;15.7;;
79592;SDS011;69074;45.164;9.704;2023-07-09T08:03:38;18.8;;;15.7;;
79592;SDS011;69074;45.164;9.704;2023-07-09T08:06:03;18.8;;;15.7;;
79592;SDS011;69074;45.164;9.704;2023-07-09T08:08:28;18.8;;;15.7;;
79592;SDS011;69074;45.164;9.704;2023-07-09T08:10:59;20.4;;;16.8;;
79592;SDS011;69074;45.164;9.704;2023-07-09T08:13:18;20.4;;;16.8;;
79592;SDS011;69074;45.164;9.704;2023-07-09T08:15:43;20.4;;;16.8;;
79592;SDS011;69074;45.164;9.704;2023-07-09T08:18:08;20.4;;;16.8;;
79592;SDS011;69074;45.164;9.704;2023-07-09T08:20:33;20.4;;;16.8;;
79592;SDS011;69074;45.164;9.704;2023-07-09T08:22:58;20.4;;;16.8;;
79592;SDS011;69074;45.164;9.704;2023-07-09T08:25:23;18.9;;;16.3;;
79592;SDS011;69074;45.164;9.704;2023-07-09T08:27:48;18.9;;;16.3;;
79592;SDS011;69074;45.164;9.704;2023-07-09T08:30:13;18.9;;;16.3;;
79592;SDS011;69074;45.164;9.704;2023-07-09T08:32:38;18.9;;;16.3;;
79592;SDS011;69074;45.164;9.704;2023-07-09T08:35:03;18.9;;;16.3;;
79592;SDS011;69074;45.164;9.704;2023-07-09T08:37:28;18.9;;;16.3;;
79592;SDS011;69074;45.164;9.704;2023-07-09T08:39:53;35.0;;;28.5;;
79592;SDS011;69074;45.164;9.704;2023-07-09T08:42:21;35.0;;;28.5;;
79592;SDS011;69074;45.164;9.704;2023-07-09T08:44:48;35.0;;;28.5;;
79592;SDS011;69074;45.164;9.704;2023-07-09T08:47:11;35.0;;;28.5;;
79592;SDS011;69074;45.164;9.704;2023-07-09T08:49:37;35.0;;;28.5;;
79592;SDS011;69074;45.164;9.704;2023-07-09T08:51:58;35.0;;;28.5;;
79592;SDS011;69074;45.164;9.704;2023-07-09T08:54:25;35.0;;;28.5;;
79592;SDS011;69074;45.164;9.704;2023-07-09T08:56:48;22.1;;;16.8;;
79592;SDS011;69074;45.164;9.704;2023-07-09T08:59:14;22.1;;;16.8;;
79592;SDS011;69074;45.164;9.704;2023-07-09T09:01:38;22.1;;;16.8;;
79592;SDS011;69074;45.164;9.704;2023-07-09T09:04:04;22.1;;;16.8;;
79592;SDS011;69074;45.164;9.704;2023-07-09T09:06:30;22.1;;;16.8;;
79592;SDS011;69074;45.164;9.704;2023-07-09T09:08:57;22.1;;;16.8;;
79592;SDS011;69074;45.164;9.704;2023-07-09T09:11:19;52.9;;;31.3;;
79592;SDS011;69074;45.164;9.704;2023-07-09T09:13:45;52.9;;;31.3;;
79592;SDS011;69074;45.164;9.704;2023-07-09T09:16:10;52.9;;;31.3;;
79592;SDS011;69074;45.164;9.704;2023-07-09T09:18:34;52.9;;;31.3;;
79592;SDS011;69074;45.164;9.704;2023-07-09T09:21:01;52.9;;;31.3;;
79592;SDS011;69074;45.164;9.704;2023-07-09T09:23:25;52.9;;;31.3;;
79592;SDS011;69074;45.164;9.704;2023-07-09T09:25:49;22.8;;;15.8;;
79592;SDS011;69074;45.164;9.704;2023-07-09T09:28:13;22.8;;;15.8;;
79592;SDS011;69074;45.164;9.704;2023-07-09T09:30:38;22.8;;;15.8;;
79592;SDS011;69074;45.164;9.704;2023-07-09T09:33:05;22.8;;;15.8;;
79592;SDS011;69074;45.164;9.704;2023-07-09T09:35:29;22.8;;;15.8;;
79592;SDS011;69074;45.164;9.704;2023-07-09T09:37:54;22.8;;;15.8;;
79592;SDS011;69074;45.164;9.704;2023-07-09T09:40:19;14.9;;;11.7;;
79592;SDS011;69074;45.164;9.704;2023-07-09T09:42:43;14.9;;;11.7;;
79592;SDS011;69074;45.164;9.704;2023-07-09T09:45:09;14.9;;;11.7;;
79592;SDS011;69074;45.164;9.704;2023-07-09T09:47:33;14.9;;;11.7;;
79592;SDS011;69074;45.164;9.704;2023-07-09T09:49:58;14.9;;;11.7;;
79592;SDS011;69074;45.164;9.704;2023-07-09T09:52:29;14.9;;;11.7;;
79592;SDS011;69074;45.164;9.704;2023-07-09T09:54:49;21.2;;;14.6;;
79592;SDS011;69074;45.164;9.704;2023-07-09T09:57:15;21.2;;;14.6;;
79592;SDS011;69074;45.164;9.704;2023-07-09T09:59:38;21.2;;;14.6;;
79592;SDS011;69074;45.164;9.704;2023-07-09T10:02:21;21.2;;;14.6;;
79592;SDS011;69074;45.164;9.704;2023-07-09T10:04:28;21.2;;;14.6;;
79592;SDS011;69074;45.164;9.704;2023-07-09T10:06:54;21.2;;;14.6;;
79592;SDS011;69074;45.164;9.704;2023-07-09T10:09:20;21.2;;;14.6;;
79592;SDS011;69074;45.164;9.704;2023-07-09T10:11:44;15.0;;;12.3;;
79592;SDS011;69074;45.164;9.704;2023-07-09T10:14:09;15.0;;;12.3;;
79592;SDS011;69074;45.164;9.704;2023-07-09T10:16:34;15.0;;;12.3;;
79592;SDS011;69074;45.164;9.704;2023-07-09T10:18:59;15.0;;;12.3;;
79592;SDS011;69074;45.164;9.704;2023-07-09T10:21:24;15.0;;;12.3;;
79592;SDS011;69074;45.164;9.704;2023-07-09T10:23:51;15.0;;;12.3;;
79592;SDS011;69074;45.164;9.704;2023-07-09T10:26:14;13.3;;;11.9;;
79592;SDS011;69074;45.164;9.704;2023-07-09T10:28:45;13.3;;;11.9;;
79592;SDS011;69074;45.164;9.704;2023-07-09T10:31:06;13.3;;;11.9;;
79592;SDS011;69074;45.164;9.704;2023-07-09T10:33:30;13.3;;;11.9;;
79592;SDS011;69074;45.164;9.704;2023-07-09T10:35:54;13.3;;;11.9;;
79592;SDS011;69074;45.164;9.704;2023-07-09T10:38:21;13.3;;;11.9;;
79592;SDS011;69074;45.164;9.704;2023-07-09T10:40:45;13.3;;;11.2;;
79592;SDS011;69074;45.164;9.704;2023-07-09T10:43:10;13.3;;;11.2;;
79592;SDS011;69074;45.164;9.704;2023-07-09T10:45:34;13.3;;;11.2;;
79592;SDS011;69074;45.164;9.704;2023-07-09T10:47:59;13.3;;;11.2;;
79592;SDS011;69074;45.164;9.704;2023-07-09T10:50:24;13.3;;;11.2;;
79592;SDS011;69074;45.164;9.704;2023-07-09T10:52:49;13.3;;;11.2;;
79592;SDS011;69074;45.164;9.704;2023-07-09T10:55:15;13.0;;;11.7;;
79592;SDS011;69074;45.164;9.704;2023-07-09T10:57:41;13.0;;;11.7;;
79592;SDS011;69074;45.164;9.704;2023-07-09T11:00:04;13.0;;;11.7;;
79592;SDS011;69074;45.164;9.704;2023-07-09T11:02:29;13.0;;;11.7;;
79592;SDS011;69074;45.164;9.704;2023-07-09T11:04:54;13.0;;;11.7;;
79592;SDS011;69074;45.164;9.704;2023-07-09T11:07:20;13.0;;;11.7;;
79592;SDS011;69074;45.164;9.704;2023-07-09T11:09:44;12.0;;;10.7;;
79592;SDS011;69074;45.164;9.704;2023-07-09T11:12:10;12.0;;;10.7;;
79592;SDS011;69074;45.164;9.704;2023-07-09T11:14:35;12.0;;;10.7;;
79592;SDS011;69074;45.164;9.704;2023-07-09T11:16:58;12.0;;;10.7;;
79592;SDS011;69074;45.164;9.704;2023-07-09T11:19:23;12.0;;;10.7;;
79592;SDS011;69074;45.164;9.704;2023-07-09T11:21:58;12.0;;;10.7;;
79592;SDS011;69074;45.164;9.704;2023-07-09T11:24:24;12.0;;;10.7;;
79592;SDS011;69074;45.164;9.704;2023-07-09T11:26:46;12.5;;;10.2;;
79592;SDS011;69074;45.164;9.704;2023-07-09T11:29:13;12.5;;;10.2;;
79592;SDS011;69074;45.164;9.704;2023-07-09T11:31:31;12.5;;;10.2;;
79592;SDS011;69074;45.164;9.704;2023-07-09T11:34:02;12.5;;;10.2;;
79592;SDS011;69074;45.164;9.704;2023-07-09T11:36:23;12.5;;;10.2;;
79592;SDS011;69074;45.164;9.704;2023-07-09T11:38:44;12.5;;;10.2;;
79592;SDS011;69074;45.164;9.704;2023-07-09T11:43:34;11.7;;;9.6;;
79592;SDS011;69074;45.164;9.704;2023-07-09T11:46:00;11.7;;;9.6;;
79592;SDS011;69074;45.164;9.704;2023-07-09T11:48:25;11.7;;;9.6;;
79592;SDS011;69074;45.164;9.704;2023-07-09T11:50:49;11.7;;;9.6;;
79592;SDS011;69074;45.164;9.704;2023-07-09T11:53:18;11.7;;;9.6;;
79592;SDS011;69074;45.164;9.704;2023-07-09T11:55:39;10.1;;;9.1;;
79592;SDS011;69074;45.164;9.704;2023-07-09T11:58:04;10.1;;;9.1;;
79592;SDS011;69074;45.164;9.704;2023-07-09T12:00:29;10.1;;;9.1;;
79592;SDS011;69074;45.164;9.704;2023-07-09T12:02:54;10.1;;;9.1;;
79592;SDS011;69074;45.164;9.704;2023-07-09T12:05:19;10.1;;;9.1;;
79592;SDS011;69074;45.164;9.704;2023-07-09T12:07:44;10.1;;;9.1;;
79592;SDS011;69074;45.164;9.704;2023-07-09T12:10:14;14.1;;;12.5;;
79592;SDS011;69074;45.164;9.704;2023-07-09T12:12:34;14.1;;;12.5;;
79592;SDS011;69074;45.164;9.704;2023-07-09T12:14:58;14.1;;;12.5;;
79592;SDS011;69074;45.164;9.704;2023-07-09T12:17:25;14.1;;;12.5;;
79592;SDS011;69074;45.164;9.704;2023-07-09T12:19:50;14.1;;;12.5;;
79592;SDS011;69074;45.164;9.704;2023-07-09T12:22:16;14.1;;;12.5;;
79592;SDS011;69074;45.164;9.704;2023-07-09T12:24:39;11.8;;;9.4;;
79592;SDS011;69074;45.164;9.704;2023-07-09T12:27:16;11.8;;;9.4;;
79592;SDS011;69074;45.164;9.704;2023-07-09T12:29:29;11.8;;;9.4;;
79592;SDS011;69074;45.164;9.704;2023-07-09T12:31:55;11.8;;;9.4;;
79592;SDS011;69074;45.164;9.704;2023-07-09T12:34:19;11.8;;;9.4;;
79592;SDS011;69074;45.164;9.704;2023-07-09T12:36:45;11.8;;;9.4;;
79592;SDS011;69074;45.164;9.704;2023-07-09T12:39:09;11.8;;;9.4;;
79592;SDS011;69074;45.164;9.704;2023-07-09T12:41:34;11.2;;;9.9;;
79592;SDS011;69074;45.164;9.704;2023-07-09T12:43:59;11.2;;;9.9;;
79592;SDS011;69074;45.164;9.704;2023-07-09T12:46:24;11.2;;;9.9;;
79592;SDS011;69074;45.164;9.704;2023-07-09T12:48:49;11.2;;;9.9;;
79592;SDS011;69074;45.164;9.704;2023-07-09T12:51:15;11.2;;;9.9;;
79592;SDS011;69074;45.164;9.704;2023-07-09T12:53:39;11.2;;;9.9;;
79592;SDS011;69074;45.164;9.704;2023-07-09T12:56:07;10.7;;;9.2;;
79592;SDS011;69074;45.164;9.704;2023-07-09T12:58:29;10.7;;;9.2;;
79592;SDS011;69074;45.164;9.704;2023-07-09T13:00:54;10.7;;;9.2;;
79592;SDS011;69074;45.164;9.704;2023-07-09T13:03:19;10.7;;;9.2;;
79592;SDS011;69074;45.164;9.704;2023-07-09T13:05:54;10.7;;;9.2;;
79592;SDS011;69074;45.164;9.704;2023-07-09T13:08:11;10.7;;;9.2;;
79592;SDS011;69074;45.164;9.704;2023-07-09T13:10:42;10.4;;;9.4;;
79592;SDS011;69074;45.164;9.704;2023-07-09T13:13:00;10.4;;;9.4;;
79592;SDS011;69074;45.164;9.704;2023-07-09T13:15:25;10.4;;;9.4;;
79592;SDS011;69074;45.164;9.704;2023-07-09T13:17:49;10.4;;;9.4;;
79592;SDS011;69074;45.164;9.704;2023-07-09T13:20:14;10.4;;;9.4;;
79592;SDS011;69074;45.164;9.704;2023-07-09T13:22:45;10.4;;;9.4;;
79592;SDS011;69074;45.164;9.704;2023-07-09T13:25:04;10.3;;;9.2;;
79592;SDS011;69074;45.164;9.704;2023-07-09T13:27:29;10.3;;;9.2;;
79592;SDS011;69074;45.164;9.704;2023-07-09T13:29:54;10.3;;;9.2;;
79592;SDS011;69074;45.164;9.704;2023-07-09T13:32:19;10.3;;;9.2;;
79592;SDS011;69074;45.164;9.704;2023-07-09T13:34:44;10.3;;;9.2;;
79592;SDS011;69074;45.164;9.704;2023-07-09T13:37:11;10.3;;;9.2;;
79592;SDS011;69074;45.164;9.704;2023-07-09T13:39:34;10.3;;;9.2;;
79592;SDS011;69074;45.164;9.704;2023-07-09T13:41:59;10.0;;;8.9;;
79592;SDS011;69074;45.164;9.704;2023-07-09T13:44:26;10.0;;;8.9;;
79592;SDS011;69074;45.164;9.704;2023-07-09T13:46:49;10.0;;;8.9;;
79592;SDS011;69074;45.164;9.704;2023-07-09T13:49:15;10.0;;;8.9;;
79592;SDS011;69074;45.164;9.704;2023-07-09T13:51:39;10.0;;;8.9;;
79592;SDS011;69074;45.164;9.704;2023-07-09T13:54:06;10.0;;;8.9;;
79592;SDS011;69074;45.164;9.704;2023-07-09T13:56:29;12.8;;;9.7;;
79592;SDS011;69074;45.164;9.704;2023-07-09T13:58:54;12.8;;;9.7;;
79592;SDS011;69074;45.164;9.704;2023-07-09T14:01:20;12.8;;;9.7;;
79592;SDS011;69074;45.164;9.704;2023-07-09T14:03:44;12.8;;;9.7;;
79592;SDS011;69074;45.164;9.704;2023-07-09T14:06:09;12.8;;;9.7;;
79592;SDS011;69074;45.164;9.704;2023-07-09T14:08:34;12.8;;;9.7;;
79592;SDS011;69074;45.164;9.704;2023-07-09T14:10:59;8.9;;;8.0;;
79592;SDS011;69074;45.164;9.704;2023-07-09T14:13:24;8.9;;;8.0;;
79592;SDS011;69074;45.164;9.704;2023-07-09T14:15:49;8.9;;;8.0;;
79592;SDS011;69074;45.164;9.704;2023-07-09T14:18:15;8.9;;;8.0;;
79592;SDS011;69074;45.164;9.704;2023-07-09T14:20:39;8.9;;;8.0;;
79592;SDS011;69074;45.164;9.704;2023-07-09T14:23:04;8.9;;;8.0;;
79592;SDS011;69074;45.164;9.704;2023-07-09T14:25:29;11.8;;;9.1;;
79592;SDS011;69074;45.164;9.704;2023-07-09T14:27:54;11.8;;;9.1;;
79592;SDS011;69074;45.164;9.704;2023-07-09T14:30:19;11.8;;;9.1;;
79592;SDS011;69074;45.164;9.704;2023-07-09T14:32:44;11.8;;;9.1;;
79592;SDS011;69074;45.164;9.704;2023-07-09T14:35:10;11.8;;;9.1;;
79592;SDS011;69074;45.164;9.704;2023-07-09T14:37:34;11.8;;;9.1;;
79592;SDS011;69074;45.164;9.704;2023-07-09T14:39:59;11.9;;;9.1;;
79592;SDS011;69074;45.164;9.704;2023-07-09T14:42:24;11.9;;;9.1;;
79592;SDS011;69074;45.164;9.704;2023-07-09T14:44:49;11.9;;;9.1;;
79592;SDS011;69074;45.164;9.704;2023-07-09T14:47:15;11.9;;;9.1;;
79592;SDS011;69074;45.164;9.704;2023-07-09T14:49:39;11.9;;;9.1;;